Terminal Aerodrome Forecast
Issued by NWS Jackson, MS

Home | Current Version | Previous Version | Text Only | Print | Product List | Glossary On
Versions: 1 2 3 4 5 6 7 8 9 10 11 12 13 14 15 16 17 18 19
958
FTUS44 KJAN 241251 AAA
TAFGLH
TAF AMD
KGLH 241251Z 2413/2512 28011KT P6SM SCT010 BKN080
      TEMPO 2413/2415 BKN008
     FM241900 29016G23KT P6SM VCSH BKN040
     FM242200 29014G21KT P6SM SCT040 BKN100
     FM250100 29008KT P6SM SKC=

USA.gov is the U.S. government's official web portal to all federal, state and local government web resources and services.